Time;durP1;ratioP1;P1;durP2;ratioP2;P2;SDS_P1;SDS_P2;PMS_P1;PMS_P2;Temp;Humidity;BMP_temperature;BMP_pressure;BME280_temperature;BME280_humidity;BME280_pressure;Samples;Min_cycle;Max_cycle;Signal;HPM_P1;HPM_P2
2022/01/11 00:02:10;;;;;;;119.07;17.50;;;;;;;;;;6267027;28;20049;-83
2022/01/11 00:05:21;;;;;;;99.40;25.63;;;;;;;;;;6265484;28;20055;-82
2022/01/11 00:08:30;;;;;;;43.05;14.10;;;;;;;;;;6268224;28;20223;-80
2022/01/11 00:11:32;;;;;;;166.70;36.15;;;;;;;;;;6266671;28;20167;-82
2022/01/11 00:14:35;;;;;;;53.38;15.52;;;;;;;;;;6267679;28;20095;-81
2022/01/11 00:17:36;;;;;;;56.80;14.85;;;;;;;;;;6253040;28;20108;-83
2022/01/11 00:20:39;;;;;;;55.47;18.50;;;;;;;;;;6286285;28;20045;-81
2022/01/11 00:26:42;;;;;;;129.00;29.95;;;;;;;;;;6271334;28;20057;-81
2022/01/11 00:29:48;;;;;;;39.38;13.85;;;;;;;;;;6253321;28;20045;-82
2022/01/11 00:32:58;;;;;;;60.95;13.38;;;;;;;;;;6286379;28;20124;-81
2022/01/11 00:36:00;;;;;;;52.38;13.63;;;;;;;;;;6272424;28;20178;-81
2022/01/11 00:39:02;;;;;;;35.67;12.07;;;;;;;;;;6252869;28;20044;-81
2022/01/11 00:42:04;;;;;;;45.88;13.18;;;;;;;;;;6270443;28;20549;-81
2022/01/11 00:45:12;;;;;;;57.30;14.23;;;;;;;;;;6250278;28;20045;-81
2022/01/11 00:48:15;;;;;;;43.75;12.55;;;;;;;;;;6266610;28;20052;-81
2022/01/11 00:51:16;;;;;;;33.30;12.00;;;;;;;;;;6266698;28;20118;-80
2022/01/11 00:54:18;;;;;;;86.68;13.57;;;;;;;;;;6266066;28;20118;-81
2022/01/11 00:57:20;;;;;;;47.15;14.90;;;;;;;;;;6267210;28;20114;-80
2022/01/11 01:00:21;;;;;;;44.80;13.48;;;;;;;;;;6282729;28;20094;-80
2022/01/11 01:03:24;;;;;;;38.95;11.43;;;;;;;;;;6269077;28;20060;-81
2022/01/11 01:06:25;;;;;;;41.22;12.45;;;;;;;;;;6269277;28;20104;-81
2022/01/11 01:09:35;;;;;;;45.88;11.88;;;;;;;;;;6270514;28;20665;-79
2022/01/11 01:12:37;;;;;;;41.35;12.00;;;;;;;;;;6243683;28;20056;-82
2022/01/11 01:15:38;;;;;;;39.88;11.95;;;;;;;;;;6247467;28;20115;-81
2022/01/11 01:18:50;;;;;;;39.03;11.88;;;;;;;;;;6271056;28;20037;-79
2022/01/11 01:21:53;;;;;;;48.80;13.27;;;;;;;;;;6271067;28;20049;-81
2022/01/11 01:24:54;;;;;;;65.00;13.13;;;;;;;;;;6286283;28;20056;-82
2022/01/11 01:27:56;;;;;;;38.80;13.63;;;;;;;;;;6267987;28;20041;-81
2022/01/11 01:31:01;;;;;;;44.05;13.45;;;;;;;;;;6268726;28;20109;-81
2022/01/11 01:34:04;;;;;;;56.63;14.32;;;;;;;;;;6286013;28;20048;-81
2022/01/11 01:37:07;;;;;;;67.63;16.67;;;;;;;;;;6284982;28;20037;-80
2022/01/11 01:40:11;;;;;;;44.65;11.70;;;;;;;;;;6266042;28;20060;-82
2022/01/11 01:43:14;;;;;;;31.98;11.50;;;;;;;;;;6252033;28;20105;-81
2022/01/11 01:46:16;;;;;;;56.07;12.33;;;;;;;;;;6268431;28;20045;-82
2022/01/11 01:49:21;;;;;;;49.10;11.15;;;;;;;;;;6286191;28;20045;-81
2022/01/11 01:52:25;;;;;;;39.70;11.52;;;;;;;;;;6270218;28;20091;-81
2022/01/11 01:55:27;;;;;;;49.33;11.63;;;;;;;;;;6283242;28;20062;-80
2022/01/11 01:58:29;;;;;;;80.40;12.07;;;;;;;;;;6268985;28;20494;-81
2022/01/11 02:01:37;;;;;;;47.72;12.13;;;;;;;;;;6266272;28;20199;-81
2022/01/11 02:04:40;;;;;;;79.63;13.57;;;;;;;;;;6268310;28;20048;-81
2022/01/11 02:07:41;;;;;;;43.87;12.33;;;;;;;;;;6269051;28;20122;-81
2022/01/11 02:10:43;;;;;;;83.13;12.52;;;;;;;;;;6267715;28;20087;-81
2022/01/11 02:13:45;;;;;;;29.63;10.75;;;;;;;;;;6285082;28;20051;-81
2022/01/11 02:16:49;;;;;;;48.58;11.90;;;;;;;;;;6284562;28;20045;-81
2022/01/11 02:19:55;;;;;;;68.45;12.45;;;;;;;;;;6268625;28;20044;-82
2022/01/11 02:22:56;;;;;;;52.65;13.52;;;;;;;;;;6270213;28;20056;-81
2022/01/11 02:26:00;;;;;;;66.05;13.77;;;;;;;;;;6284497;28;20041;-81
2022/01/11 02:29:03;;;;;;;61.75;13.25;;;;;;;;;;6267141;28;20036;-80
2022/01/11 02:32:05;;;;;;;84.10;12.98;;;;;;;;;;6283359;28;20753;-81
2022/01/11 02:35:08;;;;;;;;;;;;;;;;;;6285867;28;20045;-80
2022/01/11 02:38:10;;;;;;;41.00;12.25;;;;;;;;;;6266364;28;20458;-81
2022/01/11 02:41:12;;;;;;;98.80;17.63;;;;;;;;;;6287408;28;20055;-81
2022/01/11 02:44:15;;;;;;;111.50;17.33;;;;;;;;;;6269231;28;20095;-81
2022/01/11 02:47:18;;;;;;;130.23;19.30;;;;;;;;;;6283527;28;20063;-80
2022/01/11 02:50:24;;;;;;;161.80;22.38;;;;;;;;;;6267676;28;20166;-80
2022/01/11 02:53:26;;;;;;;115.70;17.23;;;;;;;;;;6284661;28;20048;-81
2022/01/11 02:56:29;;;;;;;;;;;;;;;;;;6268191;28;20048;-80
2022/01/11 02:59:32;;;;;;;96.95;13.00;;;;;;;;;;6267644;28;19921;-79
2022/01/11 03:02:34;;;;;;;89.93;14.88;;;;;;;;;;6267736;28;20573;-82
2022/01/11 03:05:36;;;;;;;112.05;15.88;;;;;;;;;;6267645;28;20041;-82
2022/01/11 03:08:42;;;;;;;113.97;14.48;;;;;;;;;;6268199;28;20045;-81
2022/01/11 03:11:47;;;;;;;96.63;14.73;;;;;;;;;;6252201;28;20037;-81
2022/01/11 03:14:48;;;;;;;123.43;15.77;;;;;;;;;;6264646;28;20406;-84
2022/01/11 03:17:51;;;;;;;63.92;13.02;;;;;;;;;;6262013;28;20041;-82
2022/01/11 03:20:53;;;;;;;128.23;16.52;;;;;;;;;;6243034;28;20049;-82
2022/01/11 03:23:57;;;;;;;121.75;16.17;;;;;;;;;;6267325;28;20097;-82
2022/01/11 03:26:59;;;;;;;117.65;15.82;;;;;;;;;;6266139;28;20041;-82
2022/01/11 03:30:03;;;;;;;;;;;;;;;;;;6267367;28;20045;-84
2022/01/11 03:33:08;;;;;;;95.90;14.45;;;;;;;;;;6283605;28;20015;-82
2022/01/11 03:36:10;;;;;;;59.50;14.02;;;;;;;;;;6267630;28;20051;-82
2022/01/11 03:39:12;;;;;;;32.50;12.57;;;;;;;;;;6284491;28;20037;-82
2022/01/11 03:42:15;;;;;;;46.63;13.70;;;;;;;;;;6249889;28;20056;-81
2022/01/11 03:45:21;;;;;;;63.60;13.70;;;;;;;;;;6266737;28;20064;-83
2022/01/11 03:48:25;;;;;;;48.85;13.13;;;;;;;;;;6267130;28;20444;-83
2022/01/11 03:51:27;;;;;;;53.67;13.20;;;;;;;;;;6250326;28;20063;-82
2022/01/11 03:54:43;;;;;;;40.95;12.85;;;;;;;;;;6266689;28;20425;-81
2022/01/11 03:57:53;;;;;;;62.28;13.00;;;;;;;;;;6219626;28;20037;-81
2022/01/11 04:00:57;;;;;;;51.60;10.70;;;;;;;;;;6232907;28;20509;-81
2022/01/11 04:03:59;;;;;;;63.20;13.23;;;;;;;;;;6286503;28;20041;-79
2022/01/11 04:07:01;;;;;;;73.43;13.70;;;;;;;;;;6253651;28;20059;-79
2022/01/11 04:10:04;;;;;;;103.43;14.57;;;;;;;;;;6268969;28;20047;-81
2022/01/11 04:13:06;;;;;;;92.28;13.13;;;;;;;;;;6269997;28;20128;-82
2022/01/11 04:16:09;;;;;;;107.37;14.97;;;;;;;;;;6252364;28;20498;-81
2022/01/11 04:19:10;;;;;;;95.70;14.25;;;;;;;;;;6271412;28;20049;-80
2022/01/11 04:22:13;;;;;;;92.43;13.45;;;;;;;;;;6268188;28;20041;-80
2022/01/11 04:25:15;;;;;;;76.68;12.93;;;;;;;;;;6244391;28;20540;-80
2022/01/11 04:28:17;;;;;;;34.08;11.85;;;;;;;;;;6268223;28;20055;-81
2022/01/11 04:31:19;;;;;;;38.80;13.40;;;;;;;;;;6283815;28;20056;-81
2022/01/11 04:34:22;;;;;;;85.68;14.13;;;;;;;;;;6285794;28;20131;-82
2022/01/11 04:37:23;;;;;;;47.33;13.05;;;;;;;;;;6250687;28;20049;-80
2022/01/11 04:40:25;;;;;;;39.67;12.35;;;;;;;;;;6268651;28;20041;-82
2022/01/11 04:43:27;;;;;;;39.80;12.98;;;;;;;;;;6284017;28;20048;-83
2022/01/11 04:46:29;;;;;;;31.00;11.65;;;;;;;;;;6245584;28;20521;-83
2022/01/11 04:49:33;;;;;;;34.97;13.25;;;;;;;;;;6227675;28;20041;-82
2022/01/11 04:52:37;;;;;;;28.27;12.57;;;;;;;;;;6237976;28;20129;-83
2022/01/11 04:55:40;;;;;;;33.83;11.27;;;;;;;;;;6261731;28;20045;-82
2022/01/11 04:58:43;;;;;;;26.33;11.15;;;;;;;;;;6286964;28;20056;-83
2022/01/11 05:01:45;;;;;;;27.35;11.63;;;;;;;;;;6268643;28;20056;-82
2022/01/11 05:04:47;;;;;;;29.38;12.23;;;;;;;;;;6269601;28;20048;-83
2022/01/11 05:07:49;;;;;;;30.52;12.68;;;;;;;;;;6253267;28;20519;-82
2022/01/11 05:10:51;;;;;;;34.30;14.43;;;;;;;;;;6268534;28;20037;-83
2022/01/11 05:13:53;;;;;;;37.30;15.77;;;;;;;;;;6270374;28;20045;-82
2022/01/11 05:17:07;;;;;;;24.40;11.23;;;;;;;;;;6268637;28;20121;-82
2022/01/11 05:20:09;;;;;;;24.90;10.75;;;;;;;;;;6285429;28;20048;-82
2022/01/11 05:23:14;;;;;;;30.67;10.70;;;;;;;;;;6269635;28;20068;-82
2022/01/11 05:26:16;;;;;;;25.17;10.65;;;;;;;;;;6269395;28;20041;-82
2022/01/11 05:29:18;;;;;;;24.60;10.57;;;;;;;;;;6286015;28;20044;-83
2022/01/11 05:32:20;;;;;;;25.48;10.20;;;;;;;;;;6284814;28;20067;-82
2022/01/11 05:35:23;;;;;;;21.85;9.68;;;;;;;;;;6269522;28;20046;-82
2022/01/11 05:38:25;;;;;;;;;;;;;;;;;;6252170;28;20055;-82
2022/01/11 05:41:27;;;;;;;26.40;9.40;;;;;;;;;;6265791;28;19956;-83
2022/01/11 05:44:28;;;;;;;22.52;8.70;;;;;;;;;;6266146;28;20041;-83
2022/01/11 05:47:31;;;;;;;21.60;8.85;;;;;;;;;;6249544;28;20045;-83
2022/01/11 05:50:33;;;;;;;19.70;9.65;;;;;;;;;;6266118;28;20847;-82
2022/01/11 05:53:36;;;;;;;32.80;13.70;;;;;;;;;;6266635;28;20044;-83
2022/01/11 05:56:37;;;;;;;26.83;10.43;;;;;;;;;;6266289;28;20052;-83
2022/01/11 05:59:40;;;;;;;25.98;10.85;;;;;;;;;;6283988;28;20052;-83
2022/01/11 06:02:46;;;;;;;19.40;9.75;;;;;;;;;;6283674;28;20056;-83
2022/01/11 06:05:59;;;;;;;23.40;9.38;;;;;;;;;;6268394;28;20123;-82
2022/01/11 06:09:03;;;;;;;20.17;9.65;;;;;;;;;;6284981;28;20509;-83
2022/01/11 06:12:07;;;;;;;22.95;9.73;;;;;;;;;;6282855;28;20126;-83
2022/01/11 06:15:09;;;;;;;23.40;9.90;;;;;;;;;;6284346;28;20442;-82
2022/01/11 06:18:11;;;;;;;25.80;9.43;;;;;;;;;;6268057;28;20060;-82
2022/01/11 06:21:30;;;;;;;21.45;9.55;;;;;;;;;;6267456;28;20068;-82
2022/01/11 06:24:32;;;;;;;19.15;8.55;;;;;;;;;;6269465;28;20127;-81
2022/01/11 06:27:39;;;;;;;17.67;8.63;;;;;;;;;;6267616;28;20044;-81
2022/01/11 06:30:48;;;;;;;20.25;8.40;;;;;;;;;;6281954;28;20413;-81
2022/01/11 06:33:50;;;;;;;19.25;8.40;;;;;;;;;;6266128;28;20087;-82
2022/01/11 06:36:54;;;;;;;26.65;10.38;;;;;;;;;;6268118;28;20182;-82
2022/01/11 06:39:56;;;;;;;21.25;9.98;;;;;;;;;;6265964;28;20128;-81
2022/01/11 06:42:59;;;;;;;23.63;11.05;;;;;;;;;;6281519;28;20184;-82
2022/01/11 06:46:02;;;;;;;26.10;10.50;;;;;;;;;;6250067;28;20045;-81
2022/01/11 06:49:04;;;;;;;21.67;9.40;;;;;;;;;;6270620;28;20041;-82
2022/01/11 06:52:06;;;;;;;22.50;9.93;;;;;;;;;;6265638;28;20451;-81
2022/01/11 06:55:14;;;;;;;22.23;9.65;;;;;;;;;;6281697;28;20049;-81
2022/01/11 06:58:16;;;;;;;31.23;12.38;;;;;;;;;;6264932;28;20037;-84
2022/01/11 07:01:19;;;;;;;35.35;14.43;;;;;;;;;;6283151;28;20497;-82
2022/01/11 07:04:22;;;;;;;105.43;36.40;;;;;;;;;;6250958;28;20033;-82
2022/01/11 07:07:29;;;;;;;29.90;13.65;;;;;;;;;;6282427;28;20567;-80
2022/01/11 07:10:30;;;;;;;401.73;146.07;;;;;;;;;;6267525;28;20052;-81
2022/01/11 07:13:33;;;;;;;358.30;122.60;;;;;;;;;;6284510;28;20061;-79
2022/01/11 07:16:35;;;;;;;226.38;73.07;;;;;;;;;;6281191;28;20045;-82
2022/01/11 07:19:37;;;;;;;46.00;19.58;;;;;;;;;;6250375;28;20112;-82
2022/01/11 07:22:44;;;;;;;117.63;40.28;;;;;;;;;;6250406;28;20045;-81
2022/01/11 07:25:48;;;;;;;81.65;29.90;;;;;;;;;;6265886;28;20056;-81
2022/01/11 07:28:50;;;;;;;116.65;41.25;;;;;;;;;;6263229;28;20044;-80
2022/01/11 07:31:53;;;;;;;;;;;;;;;;;;6262600;28;20170;-81
2022/01/11 07:34:57;;;;;;;55.00;21.30;;;;;;;;;;6269674;28;19921;-80
2022/01/11 07:38:00;;;;;;;39.28;14.88;;;;;;;;;;6273310;28;20052;-81
2022/01/11 07:41:05;;;;;;;28.88;12.43;;;;;;;;;;6239125;28;20053;-78
2022/01/11 07:44:17;;;;;;;40.20;14.80;;;;;;;;;;6250097;28;20049;-82
2022/01/11 07:47:21;;;;;;;31.60;14.07;;;;;;;;;;6269025;28;20041;-81
2022/01/11 07:50:23;;;;;;;131.57;50.13;;;;;;;;;;6275326;28;20040;-81
2022/01/11 07:53:27;;;;;;;46.00;19.58;;;;;;;;;;6290570;28;20036;-81
2022/01/11 07:56:34;;;;;;;105.38;39.95;;;;;;;;;;6235851;28;20050;-80
2022/01/11 07:59:37;;;;;;;64.35;28.08;;;;;;;;;;6232441;28;20049;-81
2022/01/11 08:02:57;;;;;;;49.95;19.50;;;;;;;;;;6268993;28;20037;-80
2022/01/11 08:06:11;;;;;;;49.10;19.48;;;;;;;;;;6272858;28;20037;-80
2022/01/11 08:09:15;;;;;;;83.85;32.35;;;;;;;;;;6267014;28;20045;-83
2022/01/11 08:12:19;;;;;;;63.15;25.83;;;;;;;;;;6280565;28;20505;-81
2022/01/11 08:15:21;;;;;;;19.77;9.95;;;;;;;;;;6270253;28;20072;-81
2022/01/11 08:18:25;;;;;;;17.13;7.95;;;;;;;;;;6247684;28;20042;-81
2022/01/11 08:21:28;;;;;;;17.97;8.03;;;;;;;;;;6256548;28;20045;-80
2022/01/11 08:24:31;;;;;;;;;;;;;;;;;;6272757;28;20045;-80
2022/01/11 08:27:33;;;;;;;23.38;9.88;;;;;;;;;;6287060;28;19951;-80
2022/01/11 08:30:36;;;;;;;20.80;10.57;;;;;;;;;;6267937;28;20454;-83
2022/01/11 08:33:42;;;;;;;27.60;13.48;;;;;;;;;;6267438;28;20049;-82
2022/01/11 08:36:48;;;;;;;29.23;12.98;;;;;;;;;;6267220;28;20052;-82
2022/01/11 08:39:50;;;;;;;27.63;12.38;;;;;;;;;;6265323;28;20041;-81
2022/01/11 08:42:53;;;;;;;34.90;13.50;;;;;;;;;;6266399;28;20060;-81
2022/01/11 08:45:55;;;;;;;34.15;12.98;;;;;;;;;;6267359;28;20045;-80
2022/01/11 08:48:56;;;;;;;34.35;12.45;;;;;;;;;;6271460;28;20037;-82
2022/01/11 08:51:58;;;;;;;25.27;10.95;;;;;;;;;;6274874;28;20143;-82
2022/01/11 08:55:01;;;;;;;51.13;20.33;;;;;;;;;;6289514;28;20065;-83
2022/01/11 08:58:03;;;;;;;36.67;14.20;;;;;;;;;;6292388;28;20048;-82
2022/01/11 09:01:06;;;;;;;43.78;16.85;;;;;;;;;;6274419;28;20448;-83
2022/01/11 09:04:11;;;;;;;32.05;13.30;;;;;;;;;;6290655;28;20418;-82
2022/01/11 09:07:30;;;;;;;22.23;9.63;;;;;;;;;;6290819;28;20160;-82
2022/01/11 09:10:33;;;;;;;;;;;;;;;;;;6256744;28;20501;-80
2022/01/11 09:13:37;;;;;;;24.13;11.13;;;;;;;;;;6270578;28;19948;-82
2022/01/11 09:16:42;;;;;;;20.05;8.88;;;;;;;;;;6249965;28;20041;-82
2022/01/11 09:19:45;;;;;;;18.65;10.50;;;;;;;;;;6247579;28;20153;-83
2022/01/11 09:22:50;;;;;;;22.05;11.05;;;;;;;;;;6270312;28;20498;-83
2022/01/11 09:25:54;;;;;;;21.13;9.30;;;;;;;;;;6282762;28;20060;-81
2022/01/11 09:28:56;;;;;;;27.08;10.63;;;;;;;;;;6269528;28;20608;-82
2022/01/11 09:32:00;;;;;;;22.33;10.52;;;;;;;;;;6266439;28;20132;-82
2022/01/11 09:35:07;;;;;;;25.08;10.02;;;;;;;;;;6267577;28;20052;-83
2022/01/11 09:38:11;;;;;;;33.20;12.73;;;;;;;;;;6273144;28;20055;-83
2022/01/11 09:41:14;;;;;;;27.88;10.48;;;;;;;;;;6255154;28;20052;-82
2022/01/11 09:44:17;;;;;;;25.58;9.48;;;;;;;;;;6273310;28;20053;-82
2022/01/11 09:47:19;;;;;;;29.48;14.02;;;;;;;;;;6286523;28;20055;-82
2022/01/11 09:50:23;;;;;;;26.65;12.48;;;;;;;;;;6288352;28;20036;-84
2022/01/11 09:53:36;;;;;;;87.63;32.00;;;;;;;;;;6298837;28;20040;-82
2022/01/11 09:56:41;;;;;;;26.30;10.85;;;;;;;;;;6249576;28;20110;-82
2022/01/11 09:59:47;;;;;;;22.38;9.82;;;;;;;;;;6272759;28;20041;-81
2022/01/11 10:03:08;;;;;;;24.80;10.52;;;;;;;;;;6273405;28;20049;-82
2022/01/11 10:06:25;;;;;;;41.05;15.52;;;;;;;;;;6288062;28;20096;-82
2022/01/11 10:09:29;;;;;;;29.80;12.52;;;;;;;;;;6272003;28;20052;-83
2022/01/11 10:12:43;;;;;;;61.90;24.77;;;;;;;;;;6245128;28;20128;-82
2022/01/11 10:15:46;;;;;;;26.35;10.60;;;;;;;;;;6249542;28;20048;-81
2022/01/11 10:18:55;;;;;;;42.78;17.65;;;;;;;;;;6270881;28;20191;-82
2022/01/11 10:22:03;;;;;;;20.70;10.13;;;;;;;;;;6270109;28;20068;-82
2022/01/11 10:25:07;;;;;;;33.22;13.82;;;;;;;;;;6253269;28;20041;-82
2022/01/11 10:28:12;;;;;;;43.88;17.95;;;;;;;;;;6229599;28;20475;-82
2022/01/11 10:31:33;;;;;;;31.52;12.07;;;;;;;;;;6269723;28;20060;-82
2022/01/11 10:34:36;;;;;;;32.97;12.17;;;;;;;;;;6269491;28;20041;-82
2022/01/11 10:37:43;;;;;;;47.22;17.90;;;;;;;;;;6252335;28;20455;-81
2022/01/11 10:40:47;;;;;;;43.42;13.88;;;;;;;;;;6268730;28;20079;-80
2022/01/11 10:43:51;;;;;;;71.15;18.80;;;;;;;;;;6268528;28;20047;-82
2022/01/11 10:46:57;;;;;;;32.28;13.63;;;;;;;;;;6284967;28;20123;-82
2022/01/11 10:50:14;;;;;;;35.15;14.98;;;;;;;;;;6267220;28;20045;-82
2022/01/11 10:53:21;;;;;;;33.67;13.35;;;;;;;;;;6268751;28;20120;-82
2022/01/11 10:56:38;;;;;;;28.48;12.40;;;;;;;;;;6258582;28;20046;-82
2022/01/11 10:59:40;;;;;;;20.08;9.20;;;;;;;;;;6244454;28;20124;-82
2022/01/11 11:02:49;;;;;;;26.00;11.40;;;;;;;;;;6255013;28;20054;-82
2022/01/11 11:06:00;;;;;;;17.23;7.63;;;;;;;;;;6226764;28;20521;-81
2022/01/11 11:09:17;;;;;;;38.72;14.93;;;;;;;;;;6243617;28;20084;-82
2022/01/11 11:12:35;;;;;;;17.13;8.25;;;;;;;;;;6266593;28;20040;-82
2022/01/11 11:15:43;;;;;;;20.80;9.85;;;;;;;;;;6250224;28;20045;-81
2022/01/11 11:18:58;;;;;;;20.55;8.75;;;;;;;;;;6283107;28;20040;-81
2022/01/11 11:22:21;;;;;;;20.23;8.65;;;;;;;;;;6265179;28;20494;-81
2022/01/11 11:25:23;;;;;;;23.70;11.40;;;;;;;;;;6266865;28;20053;-81
2022/01/11 11:28:24;;;;;;;20.30;9.32;;;;;;;;;;6264893;28;20128;-81
2022/01/11 11:31:27;;;;;;;27.83;12.60;;;;;;;;;;6265167;28;20090;-82
2022/01/11 11:34:30;;;;;;;23.20;9.73;;;;;;;;;;6266551;28;20090;-82
2022/01/11 11:37:37;;;;;;;22.73;11.35;;;;;;;;;;6267666;28;20043;-82
2022/01/11 11:40:40;;;;;;;18.10;8.60;;;;;;;;;;6267192;28;20107;-81
2022/01/11 11:43:42;;;;;;;16.63;7.38;;;;;;;;;;6248473;28;20071;-81
2022/01/11 11:46:50;;;;;;;20.63;8.90;;;;;;;;;;6266574;28;20053;-82
2022/01/11 11:49:55;;;;;;;17.23;7.50;;;;;;;;;;6264898;28;20047;-82
2022/01/11 11:52:56;;;;;;;16.80;7.30;;;;;;;;;;6263232;28;20143;-82
2022/01/11 11:56:19;;;;;;;13.73;7.25;;;;;;;;;;6266026;28;20037;-82
2022/01/11 11:59:24;;;;;;;22.10;8.87;;;;;;;;;;6267205;28;20391;-81
2022/01/11 12:02:39;;;;;;;21.98;8.20;;;;;;;;;;6264362;28;20106;-81
2022/01/11 12:05:45;;;;;;;12.75;6.68;;;;;;;;;;6282230;28;20365;-81
2022/01/11 12:08:59;;;;;;;16.58;7.45;;;;;;;;;;6266758;28;20191;-82
2022/01/11 12:12:02;;;;;;;14.70;7.43;;;;;;;;;;6265836;28;20061;-81
2022/01/11 12:15:22;;;;;;;25.60;9.07;;;;;;;;;;6266852;28;20060;-81
2022/01/11 12:18:24;;;;;;;15.90;7.38;;;;;;;;;;6264716;28;20056;-81
2022/01/11 12:22:05;;;;;;;15.70;7.70;;;;;;;;;;6267575;28;20048;-80
2022/01/11 12:25:25;;;;;;;16.90;6.90;;;;;;;;;;6276344;28;20183;-81
2022/01/11 12:28:27;;;;;;;13.23;6.63;;;;;;;;;;6246145;28;20103;-80
2022/01/11 12:31:50;;;;;;;16.73;7.60;;;;;;;;;;6256597;28;20097;-80
2022/01/11 12:34:55;;;;;;;11.32;6.78;;;;;;;;;;6271011;28;20044;-79
2022/01/11 12:38:08;;;;;;;14.10;7.00;;;;;;;;;;6285156;28;20116;-79
2022/01/11 12:41:30;;;;;;;14.57;7.28;;;;;;;;;;6285395;28;20540;-81
2022/01/11 12:45:35;;;;;;;15.32;7.90;;;;;;;;;;6270341;28;20049;-81
2022/01/11 12:47:55;;;;;;;14.23;8.18;;;;;;;;;;6270308;28;20195;-80
2022/01/11 12:51:01;;;;;;;16.77;6.85;;;;;;;;;;6283905;28;20128;-81
2022/01/11 12:54:16;;;;;;;19.35;7.10;;;;;;;;;;6284327;28;20087;-80
2022/01/11 12:57:22;;;;;;;12.48;6.72;;;;;;;;;;6266959;28;20144;-80
2022/01/11 13:00:23;;;;;;;15.55;7.18;;;;;;;;;;6268704;28;20124;-81
2022/01/11 13:03:25;;;;;;;15.57;6.85;;;;;;;;;;6276569;28;20166;-80
2022/01/11 13:06:31;;;;;;;20.65;9.48;;;;;;;;;;6279762;28;20116;-80
2022/01/11 13:09:34;;;;;;;17.35;8.00;;;;;;;;;;6294909;28;20040;-80
2022/01/11 13:12:45;;;;;;;23.30;11.27;;;;;;;;;;6258429;28;20148;-80
2022/01/11 13:15:49;;;;;;;26.75;15.45;;;;;;;;;;6284944;28;20045;-80
2022/01/11 13:18:51;;;;;;;18.75;10.52;;;;;;;;;;6270414;28;20055;-80
2022/01/11 13:22:11;;;;;;;24.63;9.57;;;;;;;;;;6269675;28;20612;-82
2022/01/11 13:25:13;;;;;;;15.73;7.80;;;;;;;;;;6277057;28;20599;-80
2022/01/11 13:28:18;;;;;;;25.92;11.45;;;;;;;;;;6244946;28;20105;-80
2022/01/11 13:31:25;;;;;;;18.10;9.23;;;;;;;;;;6253805;28;20129;-81
2022/01/11 13:34:27;;;;;;;14.32;7.45;;;;;;;;;;6271000;28;20049;-82
2022/01/11 13:37:28;;;;;;;13.32;7.28;;;;;;;;;;6268488;28;20532;-82
2022/01/11 13:40:30;;;;;;;14.68;8.43;;;;;;;;;;6250582;28;20115;-81
2022/01/11 13:43:35;;;;;;;16.65;8.32;;;;;;;;;;6270922;28;20045;-81
2022/01/11 13:46:50;;;;;;;19.50;9.15;;;;;;;;;;6270611;28;20045;-81
2022/01/11 13:49:54;;;;;;;18.70;9.10;;;;;;;;;;6270431;28;20091;-81
2022/01/11 13:52:57;;;;;;;13.77;7.93;;;;;;;;;;6269553;28;20183;-80
2022/01/11 13:56:04;;;;;;;15.30;7.05;;;;;;;;;;6269659;28;20127;-81
2022/01/11 13:59:07;;;;;;;16.13;7.00;;;;;;;;;;6265963;28;20191;-81
2022/01/11 14:02:17;;;;;;;13.87;6.67;;;;;;;;;;6266046;28;20047;-81
2022/01/11 14:05:19;;;;;;;21.70;11.57;;;;;;;;;;6265560;28;20524;-81
2022/01/11 14:08:29;;;;;;;14.57;7.55;;;;;;;;;;6265467;28;20124;-81
2022/01/11 14:11:36;;;;;;;12.27;6.53;;;;;;;;;;6267029;28;20498;-81
2022/01/11 14:14:39;;;;;;;11.75;6.55;;;;;;;;;;6264775;28;20108;-80
2022/01/11 14:17:41;;;;;;;13.38;7.10;;;;;;;;;;6266416;28;20127;-80
2022/01/11 14:20:44;;;;;;;13.75;5.75;;;;;;;;;;6268390;28;20530;-80
2022/01/11 14:23:52;;;;;;;15.65;7.88;;;;;;;;;;6281487;28;20069;-81
2022/01/11 14:26:53;;;;;;;18.88;9.10;;;;;;;;;;6262536;28;20083;-81
2022/01/11 14:30:00;;;;;;;19.50;8.23;;;;;;;;;;6266367;28;20068;-79
2022/01/11 14:33:02;;;;;;;13.68;5.72;;;;;;;;;;6282098;28;20056;-78
2022/01/11 14:36:11;;;;;;;10.63;6.30;;;;;;;;;;6262036;28;20049;-80
2022/01/11 14:39:13;;;;;;;18.75;9.80;;;;;;;;;;6263464;28;20536;-80
2022/01/11 14:42:26;;;;;;;11.90;5.50;;;;;;;;;;6265160;28;20508;-81
2022/01/11 14:45:28;;;;;;;11.00;5.93;;;;;;;;;;6267472;28;20120;-80
2022/01/11 14:48:36;;;;;;;31.40;10.52;;;;;;;;;;6266931;28;20632;-80
2022/01/11 14:51:43;;;;;;;19.25;10.55;;;;;;;;;;6262123;28;20044;-80
2022/01/11 14:54:54;;;;;;;44.38;21.42;;;;;;;;;;6261377;28;20040;-81
2022/01/11 14:58:03;;;;;;;27.17;14.50;;;;;;;;;;6259081;28;20044;-82
2022/01/11 15:01:12;;;;;;;18.35;9.80;;;;;;;;;;6262540;28;20073;-81
2022/01/11 15:04:16;;;;;;;11.70;5.03;;;;;;;;;;6250540;28;20105;-81
2022/01/11 15:07:20;;;;;;;8.05;4.40;;;;;;;;;;6277644;28;20128;-81
2022/01/11 15:10:31;;;;;;;12.88;6.32;;;;;;;;;;6276287;28;20504;-81
2022/01/11 15:13:38;;;;;;;22.58;10.65;;;;;;;;;;6263039;28;20045;-80
2022/01/11 15:16:41;;;;;;;16.10;7.68;;;;;;;;;;6274331;28;20095;-79
2022/01/11 15:19:42;;;;;;;22.70;9.83;;;;;;;;;;6244011;28;20041;-81
2022/01/11 15:22:47;;;;;;;29.85;12.10;;;;;;;;;;6252367;28;20448;-82
2022/01/11 15:25:50;;;;;;;33.53;14.75;;;;;;;;;;6254745;28;20059;-83
2022/01/11 15:28:54;;;;;;;18.67;9.38;;;;;;;;;;6279204;28;20524;-83
2022/01/11 15:31:56;;;;;;;24.23;13.23;;;;;;;;;;6258907;28;20054;-85
2022/01/11 15:34:58;;;;;;;44.53;23.88;;;;;;;;;;6231581;28;20075;-81
2022/01/11 15:38:00;;;;;;;30.67;17.15;;;;;;;;;;6254189;28;20417;-83
2022/01/11 15:41:09;;;;;;;20.52;8.60;;;;;;;;;;6217155;28;20048;-82
2022/01/11 15:44:12;;;;;;;21.58;11.25;;;;;;;;;;6262096;28;20045;-82
2022/01/11 15:47:14;;;;;;;;;;;;;;;;;;6248706;28;20120;-82
2022/01/11 15:50:16;;;;;;;50.92;16.10;;;;;;;;;;6244002;28;20483;-82
2022/01/11 15:53:17;;;;;;;17.98;9.77;;;;;;;;;;6220849;28;20066;-81
2022/01/11 15:56:19;;;;;;;23.27;10.25;;;;;;;;;;6240611;28;20610;-83
2022/01/11 15:59:21;;;;;;;17.88;7.43;;;;;;;;;;6267973;28;20136;-83
2022/01/11 16:02:24;;;;;;;11.55;6.78;;;;;;;;;;6268073;28;20075;-82
2022/01/11 16:05:26;;;;;;;16.40;7.13;;;;;;;;;;6283940;28;20386;-81
2022/01/11 16:08:28;;;;;;;25.15;11.35;;;;;;;;;;6267216;28;20044;-82
2022/01/11 16:11:30;;;;;;;17.58;7.75;;;;;;;;;;6282466;28;20048;-81
2022/01/11 16:14:35;;;;;;;22.65;9.65;;;;;;;;;;6266093;28;20061;-85
2022/01/11 16:17:37;;;;;;;21.73;9.40;;;;;;;;;;6283066;28;20084;-82
2022/01/11 16:20:39;;;;;;;24.70;10.75;;;;;;;;;;6249810;28;20052;-82
2022/01/11 16:23:41;;;;;;;29.05;16.95;;;;;;;;;;6267470;28;20123;-82
2022/01/11 16:26:43;;;;;;;26.63;14.25;;;;;;;;;;6247056;28;20060;-81
2022/01/11 16:29:44;;;;;;;34.35;15.40;;;;;;;;;;6259606;28;20041;-84
2022/01/11 16:32:47;;;;;;;20.58;10.38;;;;;;;;;;6262985;28;20054;-84
2022/01/11 16:35:51;;;;;;;24.77;12.73;;;;;;;;;;6262262;28;20087;-83
2022/01/11 16:38:57;;;;;;;23.85;13.00;;;;;;;;;;6281941;28;20045;-82
2022/01/11 16:45:20;;;;;;;31.52;13.73;;;;;;;;;;6263629;28;20095;-82
2022/01/11 16:48:23;;;;;;;31.83;13.73;;;;;;;;;;6265753;28;20102;-82
2022/01/11 16:51:25;;;;;;;28.52;11.57;;;;;;;;;;6280629;28;20051;-83
2022/01/11 16:54:29;;;;;;;27.10;13.18;;;;;;;;;;6262122;28;20132;-82
2022/01/11 16:57:31;;;;;;;26.73;12.13;;;;;;;;;;6279444;28;20136;-81
2022/01/11 17:00:36;;;;;;;14.82;8.82;;;;;;;;;;6264323;28;20056;-82
2022/01/11 17:03:38;;;;;;;19.85;8.57;;;;;;;;;;6263396;28;20041;-81
2022/01/11 17:06:39;;;;;;;36.63;22.33;;;;;;;;;;6279086;28;20164;-81
2022/01/11 17:09:43;;;;;;;18.38;8.13;;;;;;;;;;6261739;28;20044;-81
2022/01/11 17:12:46;;;;;;;11.95;6.72;;;;;;;;;;6264294;28;20123;-82
2022/01/11 17:15:48;;;;;;;14.88;7.05;;;;;;;;;;6246287;28;20529;-80
2022/01/11 17:18:50;;;;;;;21.13;9.05;;;;;;;;;;6265156;28;20045;-82
2022/01/11 17:21:52;;;;;;;18.85;8.43;;;;;;;;;;6252804;28;20045;-81
2022/01/11 17:25:14;;;;;;;19.50;8.30;;;;;;;;;;6254694;28;20052;-80
2022/01/11 17:28:16;;;;;;;19.17;9.90;;;;;;;;;;6264958;28;20127;-82
2022/01/11 17:31:18;;;;;;;20.45;10.63;;;;;;;;;;6263466;28;20048;-83
2022/01/11 17:34:21;;;;;;;18.85;10.63;;;;;;;;;;6264773;28;20074;-80
2022/01/11 17:37:23;;;;;;;18.83;7.22;;;;;;;;;;6265128;28;20061;-83
2022/01/11 17:40:24;;;;;;;21.35;9.73;;;;;;;;;;6244045;28;20315;-81
2022/01/11 17:43:26;;;;;;;22.80;9.40;;;;;;;;;;6280066;28;20052;-82
2022/01/11 17:46:29;;;;;;;19.25;9.25;;;;;;;;;;6273785;28;20079;-82
2022/01/11 17:49:31;;;;;;;23.45;10.55;;;;;;;;;;6264981;28;20709;-83
2022/01/11 17:52:33;;;;;;;22.70;9.77;;;;;;;;;;6278540;28;20037;-82
2022/01/11 17:55:39;;;;;;;21.33;9.77;;;;;;;;;;6278814;28;20053;-82
2022/01/11 17:58:41;;;;;;;19.42;9.43;;;;;;;;;;6265648;28;20049;-82
2022/01/11 18:01:44;;;;;;;17.95;9.93;;;;;;;;;;6254864;28;20055;-81
2022/01/11 18:04:53;;;;;;;21.50;9.40;;;;;;;;;;6266316;28;20052;-80
2022/01/11 18:07:56;;;;;;;19.80;9.70;;;;;;;;;;6283155;28;20079;-82
2022/01/11 18:11:01;;;;;;;19.65;8.48;;;;;;;;;;6264920;28;20048;-82